Time;durP1;ratioP1;P1;durP2;ratioP2;P2;SDS_P1;SDS_P2;PMS_P1;PMS_P2;Temp;Humidity;BMP_temperature;BMP_pressure;BME280_temperature;BME280_humidity;BME280_pressure;Samples;Min_cycle;Max_cycle;Signal;HPM_P1;HPM_P2
2023/01/24 00:02:06;;;;;;;78.60;29.80;;;;;;;1.39;100.00;102388.43;106763;1269;24321;-62
2023/01/24 00:04:37;;;;;;;81.50;30.50;;;;;;;1.39;100.00;102385.98;106844;1277;24324;-60
2023/01/24 00:07:08;;;;;;;77.80;33.80;;;;;;;1.38;100.00;102386.22;106758;1277;24304;-61
2023/01/24 00:09:39;;;;;;;77.30;29.90;;;;;;;1.40;100.00;102384.06;106812;1277;22546;-60
2023/01/24 00:12:10;;;;;;;79.10;32.40;;;;;;;1.41;100.00;102381.08;106809;1262;24225;-62
2023/01/24 00:14:41;;;;;;;79.00;30.60;;;;;;;1.41;100.00;102376.99;106822;1277;22537;-60
2023/01/24 00:17:13;;;;;;;82.30;32.30;;;;;;;1.42;100.00;102376.79;106744;1275;23806;-62
2023/01/24 00:19:44;;;;;;;82.30;34.70;;;;;;;1.42;100.00;102374.66;106783;1273;22661;-61
2023/01/24 00:22:15;;;;;;;85.90;34.80;;;;;;;1.45;100.00;102376.20;106733;1274;22529;-62
2023/01/24 00:24:48;;;;;;;76.50;29.40;;;;;;;1.46;100.00;102376.70;106757;1274;22514;-61
2023/01/24 00:27:20;;;;;;;84.00;33.30;;;;;;;1.45;100.00;102379.74;106749;1266;22641;-60
2023/01/24 00:29:51;;;;;;;82.80;32.90;;;;;;;1.45;100.00;102377.61;106733;1277;22538;-60
2023/01/24 00:32:22;;;;;;;80.50;34.20;;;;;;;1.46;100.00;102378.35;106751;1275;22587;-61
2023/01/24 00:34:53;;;;;;;78.90;33.30;;;;;;;1.47;100.00;102379.54;106718;1276;24083;-60
2023/01/24 00:37:25;;;;;;;76.00;31.70;;;;;;;1.48;100.00;102382.85;106705;1277;22653;-62
2023/01/24 00:39:56;;;;;;;76.10;30.00;;;;;;;1.49;100.00;102380.05;106830;1262;23595;-59
2023/01/24 00:42:27;;;;;;;79.70;30.00;;;;;;;1.50;100.00;102385.18;106604;1272;24238;-61
2023/01/24 00:44:59;;;;;;;79.60;32.50;;;;;;;1.48;100.00;102383.57;106716;1277;22754;-60
2023/01/24 00:47:30;;;;;;;78.20;31.10;;;;;;;1.48;100.00;102389.00;106731;1277;22657;-62
2023/01/24 00:50:01;;;;;;;85.20;34.00;;;;;;;1.46;100.00;102390.68;106760;1274;22541;-61
2023/01/24 00:52:32;;;;;;;78.30;31.40;;;;;;;1.45;100.00;102391.46;106936;1273;24263;-61
2023/01/24 00:55:04;;;;;;;80.30;30.70;;;;;;;1.47;100.00;102390.16;107650;1275;22620;-62
2023/01/24 00:57:35;;;;;;;78.10;28.90;;;;;;;1.49;100.00;102398.15;107039;1277;22692;-62
2023/01/24 01:00:08;;;;;;;77.90;32.60;;;;;;;1.48;100.00;102406.95;106809;1273;22527;-62
2023/01/24 01:02:39;;;;;;;72.00;28.90;;;;;;;1.49;100.00;102404.29;106809;1277;22668;-62
2023/01/24 01:05:11;;;;;;;73.40;30.30;;;;;;;1.49;100.00;102405.77;106774;1275;22854;-62
2023/01/24 01:07:42;;;;;;;71.00;28.40;;;;;;;1.50;100.00;102409.01;106764;1276;22531;-61
2023/01/24 01:10:14;;;;;;;62.50;25.70;;;;;;;1.51;100.00;102412.73;106830;1275;22536;-62
2023/01/24 01:12:45;;;;;;;71.50;29.50;;;;;;;1.51;100.00;102411.33;106864;1277;22614;-60
2023/01/24 01:15:16;;;;;;;70.70;28.00;;;;;;;1.51;100.00;102406.21;106719;1277;22590;-62
2023/01/24 01:17:47;;;;;;;73.20;28.20;;;;;;;1.51;100.00;102411.88;106837;1277;23016;-60
2023/01/24 01:20:18;;;;;;;70.80;30.10;;;;;;;1.50;100.00;102411.23;106810;1277;22537;-60
2023/01/24 01:22:49;;;;;;;77.10;29.60;;;;;;;1.51;100.00;102407.16;107012;1274;22695;-61
2023/01/24 01:25:21;;;;;;;77.40;31.00;;;;;;;1.50;100.00;102407.30;106794;1277;22530;-62
2023/01/24 01:27:52;;;;;;;74.40;30.80;;;;;;;1.51;100.00;102405.66;106983;1275;22486;-61
2023/01/24 01:30:23;;;;;;;78.50;32.80;;;;;;;1.51;100.00;102402.91;106786;1267;22537;-60
2023/01/24 01:32:54;;;;;;;75.10;31.30;;;;;;;1.54;100.00;102407.52;106826;1277;24770;-62
2023/01/24 01:35:25;;;;;;;71.90;31.30;;;;;;;1.56;100.00;102406.14;106788;1267;25300;-60
2023/01/24 01:37:56;;;;;;;76.10;30.70;;;;;;;1.59;100.00;102410.37;106840;1277;22643;-62
2023/01/24 01:40:27;;;;;;;69.00;30.00;;;;;;;1.58;100.00;102409.64;106800;1277;22654;-61
2023/01/24 01:42:59;;;;;;;80.10;31.50;;;;;;;1.59;100.00;102417.44;106778;1276;23026;-60
2023/01/24 01:45:42;;;;;;;69.60;28.60;;;;;;;1.61;100.00;102413.22;106777;1276;24333;-61
2023/01/24 01:48:22;;;;;;;72.10;29.50;;;;;;;1.60;100.00;102413.30;106808;1270;24284;-61
2023/01/24 01:50:59;;;;;;;69.00;32.00;;;;;;;1.58;100.00;102413.24;106870;1277;22622;-61
2023/01/24 01:53:35;;;;;;;78.20;32.00;;;;;;;1.59;100.00;102411.23;106970;1277;24282;-62
2023/01/24 01:56:11;;;;;;;73.80;29.50;;;;;;;1.58;100.00;102409.88;106837;1277;26550;-59
2023/01/24 01:58:43;;;;;;;77.30;32.10;;;;;;;1.60;100.00;102405.41;106818;1274;23832;-60
2023/01/24 02:01:14;;;;;;;74.10;31.20;;;;;;;1.60;100.00;102401.59;106862;1276;25277;-60
2023/01/24 02:03:52;;;;;;;77.20;31.40;;;;;;;1.62;100.00;102398.30;106815;1270;24344;-60
2023/01/24 02:06:38;;;;;;;75.20;31.50;;;;;;;1.64;100.00;102398.27;106862;1277;22530;-62
2023/01/24 02:09:13;;;;;;;66.00;28.70;;;;;;;1.68;100.00;102397.30;106726;1273;22559;-60
2023/01/24 02:11:44;;;;;;;75.70;32.20;;;;;;;1.69;100.00;102398.73;106803;1277;22655;-60
2023/01/24 02:17:08;;;;;;;70.90;30.10;;;;;;;1.71;100.00;102389.42;106830;1274;24245;-61
2023/01/24 02:19:59;;;;;;;78.80;33.00;;;;;;;1.75;100.00;102385.55;106878;1277;22562;-61
2023/01/24 02:22:39;;;;;;;81.10;33.10;;;;;;;1.77;100.00;102382.42;106918;1277;24942;-60
2023/01/24 02:25:17;;;;;;;78.30;31.10;;;;;;;1.79;100.00;102378.31;106855;1277;22546;-61
2023/01/24 02:27:49;;;;;;;76.70;33.40;;;;;;;1.82;100.00;102380.88;106852;1277;22542;-59
2023/01/24 02:30:20;;;;;;;76.10;32.80;;;;;;;1.84;100.00;102376.81;106783;1277;22573;-60
2023/01/24 02:32:51;;;;;;;73.50;31.20;;;;;;;1.85;100.00;102375.19;106742;1254;22538;-61
2023/01/24 02:35:28;;;;;;;71.90;30.70;;;;;;;1.88;100.00;102375.39;106683;1272;22561;-60
2023/01/24 02:38:04;;;;;;;76.70;30.60;;;;;;;1.88;100.00;102372.64;107012;1276;24274;-62
2023/01/24 02:40:36;;;;;;;69.80;28.60;;;;;;;1.90;100.00;102375.98;106851;1270;22531;-60
2023/01/24 02:43:10;;;;;;;72.40;29.60;;;;;;;1.90;100.00;102374.48;106854;1271;25255;-62
2023/01/24 02:45:41;;;;;;;71.60;29.50;;;;;;;1.90;100.00;102371.49;106824;1270;22551;-60
2023/01/24 02:48:13;;;;;;;79.40;32.00;;;;;;;1.88;100.00;102371.23;106811;1277;22549;-59
2023/01/24 02:53:33;;;;;;;70.70;29.40;;;;;;;1.84;100.00;102368.30;106840;1277;22529;-62
2023/01/24 02:58:56;;;;;;;70.00;29.50;;;;;;;1.82;100.00;102361.59;107141;1270;22720;-61
2023/01/24 03:01:27;;;;;;;68.50;30.60;;;;;;;1.82;100.00;102364.98;106951;1274;22550;-62
2023/01/24 03:03:58;;;;;;;74.60;33.10;;;;;;;1.83;100.00;102362.94;106768;1277;22536;-60
2023/01/24 03:06:29;;;;;;;79.60;31.90;;;;;;;1.84;100.00;102366.98;106884;1270;23901;-61
2023/01/24 03:09:18;;;;;;;82.80;33.20;;;;;;;1.83;100.00;102372.55;106752;1278;22557;-60
2023/01/24 03:11:50;;;;;;;74.00;31.90;;;;;;;1.82;100.00;102375.91;106792;1270;22566;-62
2023/01/24 03:36:54;;;;;;;77.40;31.10;;;;;;;1.79;100.00;102394.11;106778;1277;22772;-61
2023/01/24 03:42:14;;;;;;;77.10;31.60;;;;;;;1.76;100.00;102390.98;106816;1277;24391;-60
2023/01/24 03:44:46;;;;;;;74.30;32.30;;;;;;;1.75;100.00;102389.89;106955;1277;22495;-60
2023/01/24 03:47:17;;;;;;;70.20;30.60;;;;;;;1.77;100.00;102392.58;106761;1270;24183;-60
2023/01/24 03:52:37;;;;;;;81.10;33.00;;;;;;;1.75;100.00;102391.21;106811;1277;22542;-61
2023/01/24 03:55:09;;;;;;;83.60;31.30;;;;;;;1.76;100.00;102386.98;106880;1274;22991;-59
2023/01/24 03:57:40;;;;;;;71.60;32.60;;;;;;;1.76;100.00;102388.39;106702;1270;327101;-60
2023/01/24 04:00:14;;;;;;;81.50;34.90;;;;;;;1.76;100.00;102386.98;106714;1270;24051;-62
2023/01/24 04:02:44;;;;;;;75.00;30.30;;;;;;;1.77;100.00;102393.45;106928;1277;22546;-61
2023/01/24 04:05:16;;;;;;;77.50;31.80;;;;;;;1.78;100.00;102394.33;106739;1270;22624;-60
2023/01/24 04:07:47;;;;;;;76.80;30.90;;;;;;;1.78;100.00;102396.84;106745;1277;24210;-60
2023/01/24 04:10:19;;;;;;;83.40;34.60;;;;;;;1.77;100.00;102393.36;106727;1277;24301;-62
2023/01/24 04:12:51;;;;;;;75.90;31.30;;;;;;;1.78;100.00;102391.73;106809;1273;22539;-60
2023/01/24 04:15:24;;;;;;;76.70;30.80;;;;;;;1.77;100.00;102394.48;107014;1270;22545;-62
2023/01/24 04:17:57;;;;;;;78.00;33.30;;;;;;;1.76;100.00;102393.83;106779;1277;25253;-62
2023/01/24 04:20:29;;;;;;;73.00;31.10;;;;;;;1.77;100.00;102394.23;106802;1277;22665;-61
2023/01/24 04:23:03;;;;;;;76.40;31.20;;;;;;;1.74;100.00;102392.21;106810;1271;25478;-60
2023/01/24 04:25:34;;;;;;;72.20;31.50;;;;;;;1.71;100.00;102392.54;106903;1264;22562;-61
2023/01/24 04:28:05;;;;;;;75.50;30.60;;;;;;;1.69;100.00;102391.20;106860;1277;25361;-60
2023/01/24 04:30:36;;;;;;;70.90;29.70;;;;;;;1.68;100.00;102392.52;106718;1271;22488;-62
2023/01/24 04:33:08;;;;;;;72.30;29.70;;;;;;;1.65;100.00;102395.67;106747;1270;24253;-62
2023/01/24 04:35:39;;;;;;;74.70;29.40;;;;;;;1.64;100.00;102393.60;106826;1277;23161;-62
2023/01/24 04:38:10;;;;;;;77.70;31.20;;;;;;;1.64;100.00;102398.11;106799;1267;22623;-61
2023/01/24 04:40:42;;;;;;;72.40;30.70;;;;;;;1.65;100.00;102403.32;106785;1277;24203;-61
2023/01/24 04:43:13;;;;;;;78.30;31.60;;;;;;;1.68;100.00;102406.50;106791;1273;22500;-60
2023/01/24 04:45:44;;;;;;;80.80;33.00;;;;;;;1.69;100.00;102409.45;106682;1260;22561;-62
2023/01/24 04:48:15;;;;;;;79.00;33.60;;;;;;;1.71;100.00;102406.71;106677;1264;23282;-61
2023/01/24 04:50:46;;;;;;;75.00;30.10;;;;;;;1.69;100.00;102406.84;106618;1277;25616;-62
2023/01/24 04:53:17;;;;;;;79.50;32.80;;;;;;;1.66;100.00;102405.77;106576;1266;22531;-59
2023/01/24 04:55:50;;;;;;;73.50;30.60;;;;;;;1.67;100.00;102410.96;106650;1277;22544;-64
2023/01/24 04:58:21;;;;;;;71.00;30.60;;;;;;;1.67;100.00;102412.80;107166;1264;22650;-62
2023/01/24 05:00:53;;;;;;;78.70;33.50;;;;;;;1.68;100.00;102414.06;106765;1264;22564;-62
2023/01/24 05:03:24;;;;;;;81.10;30.50;;;;;;;1.68;100.00;102416.73;106768;1270;25252;-60
2023/01/24 05:05:57;;;;;;;78.90;33.40;;;;;;;1.67;100.00;102414.38;106614;1271;22572;-62
2023/01/24 05:08:28;;;;;;;72.50;29.30;;;;;;;1.66;100.00;102414.90;106825;1273;22534;-63
2023/01/24 05:11:03;;;;;;;76.80;31.50;;;;;;;1.66;100.00;102416.94;106655;1272;25417;-62
2023/01/24 05:13:34;;;;;;;77.60;32.60;;;;;;;1.68;100.00;102418.86;106744;1274;22798;-62
2023/01/24 05:16:06;;;;;;;76.70;31.00;;;;;;;1.69;100.00;102414.31;106761;1274;22722;-62
2023/01/24 05:18:37;;;;;;;77.30;31.80;;;;;;;1.71;100.00;102416.88;106837;1277;22552;-62
2023/01/24 05:21:11;;;;;;;75.60;31.60;;;;;;;1.71;100.00;102419.54;106732;1270;23154;-62
2023/01/24 05:23:42;;;;;;;76.40;30.40;;;;;;;1.70;100.00;102425.34;106800;1269;22544;-60
2023/01/24 05:26:13;;;;;;;76.20;30.40;;;;;;;1.68;100.00;102422.89;106729;1276;22538;-62
2023/01/24 05:28:44;;;;;;;79.30;33.00;;;;;;;1.67;100.00;102426.02;106690;1276;24222;-62
2023/01/24 05:31:15;;;;;;;84.10;34.30;;;;;;;1.68;100.00;102426.27;106752;1273;22531;-60
2023/01/24 05:33:46;;;;;;;81.10;32.50;;;;;;;1.68;100.00;102423.18;106716;1276;22534;-62
2023/01/24 05:36:20;;;;;;;80.60;32.20;;;;;;;1.69;100.00;102423.92;106654;1271;22535;-60
2023/01/24 05:38:51;;;;;;;74.20;31.20;;;;;;;1.67;100.00;102428.60;106679;1270;24233;-61
2023/01/24 05:41:22;;;;;;;76.80;30.60;;;;;;;1.66;100.00;102428.96;106593;1276;24183;-62
2023/01/24 05:43:53;;;;;;;77.40;32.40;;;;;;;1.66;100.00;102425.98;108364;1269;25456;-63
2023/01/24 05:46:24;;;;;;;82.90;33.80;;;;;;;1.68;100.00;102424.84;106548;1254;22554;-60
2023/01/24 05:48:56;;;;;;;77.30;32.30;;;;;;;1.70;100.00;102425.19;106722;1275;24210;-62
2023/01/24 05:51:27;;;;;;;80.30;32.30;;;;;;;1.71;100.00;102426.54;106722;1271;23023;-60
2023/01/24 05:53:58;;;;;;;75.70;31.30;;;;;;;1.73;100.00;102425.08;106740;1277;25254;-61
2023/01/24 05:56:29;;;;;;;74.30;31.90;;;;;;;1.74;100.00;102428.17;106840;1270;22552;-60
2023/01/24 05:59:01;;;;;;;74.00;31.10;;;;;;;1.73;100.00;102434.38;106650;1277;24197;-61
2023/01/24 06:01:32;;;;;;;80.70;31.80;;;;;;;1.75;100.00;102436.14;106728;1270;23023;-59
2023/01/24 06:04:04;;;;;;;78.90;32.70;;;;;;;1.77;100.00;102440.98;106716;1277;22651;-61
2023/01/24 06:06:35;;;;;;;79.40;33.50;;;;;;;1.78;100.00;102441.53;106687;1273;22992;-61
2023/01/24 06:09:07;;;;;;;76.60;31.80;;;;;;;1.79;100.00;102448.17;106642;1270;24189;-63
2023/01/24 06:11:38;;;;;;;73.80;31.90;;;;;;;1.79;100.00;102451.02;106708;1277;22534;-60
2023/01/24 06:14:09;;;;;;;75.70;32.50;;;;;;;1.78;100.00;102452.01;106807;1277;24202;-62
2023/01/24 06:16:40;;;;;;;78.30;31.70;;;;;;;1.77;100.00;102451.83;106733;1255;22550;-62
2023/01/24 06:19:13;;;;;;;77.30;32.70;;;;;;;1.79;100.00;102454.94;106680;1273;22529;-60
2023/01/24 06:21:50;;;;;;;81.30;34.60;;;;;;;1.78;100.00;102453.83;106810;1273;24285;-60
2023/01/24 06:24:24;;;;;;;80.10;32.30;;;;;;;1.79;100.00;102458.31;106811;1277;22630;-61
2023/01/24 06:26:56;;;;;;;84.50;32.80;;;;;;;1.80;100.00;102459.77;106724;1277;25311;-62
2023/01/24 06:29:28;;;;;;;75.50;29.80;;;;;;;1.79;100.00;102455.41;106694;1277;22537;-60
2023/01/24 06:32:12;;;;;;;74.50;29.70;;;;;;;1.78;100.00;102460.11;106794;1271;24311;-60
2023/01/24 06:35:08;;;;;;;69.90;29.10;;;;;;;1.80;100.00;102461.23;107004;1271;22580;-60
2023/01/24 06:37:47;;;;;;;77.00;32.00;;;;;;;1.78;100.00;102464.84;106997;1273;22796;-60
2023/01/24 06:40:22;;;;;;;75.70;31.00;;;;;;;1.79;100.00;102468.63;106904;1273;23934;-61
2023/01/24 06:42:55;;;;;;;76.00;31.70;;;;;;;1.79;100.00;102470.29;106907;1270;22584;-62
2023/01/24 06:45:26;;;;;;;77.50;32.90;;;;;;;1.79;100.00;102473.58;107028;1270;22533;-60
2023/01/24 06:47:57;;;;;;;79.80;32.50;;;;;;;1.78;100.00;102474.52;106808;1273;22702;-62
2023/01/24 06:50:31;;;;;;;76.70;29.80;;;;;;;1.77;100.00;102477.26;106886;1262;24240;-61
2023/01/24 06:53:02;;;;;;;78.40;29.60;;;;;;;1.76;100.00;102480.07;106814;1273;24154;-60
2023/01/24 06:55:34;;;;;;;73.10;27.90;;;;;;;1.76;100.00;102481.63;107037;1262;22505;-61
2023/01/24 06:58:05;;;;;;;76.20;28.80;;;;;;;1.74;100.00;102486.80;106921;1262;24211;-61
2023/01/24 07:00:36;;;;;;;70.50;30.50;;;;;;;1.75;100.00;102492.77;107675;1273;22545;-62
2023/01/24 07:03:09;;;;;;;76.20;30.80;;;;;;;1.76;100.00;102494.93;107306;1270;22535;-62
2023/01/24 07:05:41;;;;;;;69.40;27.60;;;;;;;1.77;100.00;102495.34;107002;1277;25415;-62
2023/01/24 07:08:12;;;;;;;79.80;30.40;;;;;;;1.77;100.00;102492.82;106888;1277;22579;-59
2023/01/24 07:10:44;;;;;;;70.70;30.80;;;;;;;1.76;100.00;102497.60;106938;1273;25805;-62
2023/01/24 07:13:15;;;;;;;80.60;32.70;;;;;;;1.75;100.00;102495.06;106826;1277;22717;-62
2023/01/24 07:15:46;;;;;;;80.60;31.70;;;;;;;1.75;100.00;102494.04;106958;1270;23959;-61
2023/01/24 07:18:19;;;;;;;87.00;36.10;;;;;;;1.75;100.00;102491.60;107003;1270;22533;-61
2023/01/24 07:20:51;;;;;;;80.70;33.80;;;;;;;1.76;100.00;102494.78;107100;1277;24929;-60
2023/01/24 07:23:28;;;;;;;91.50;35.80;;;;;;;1.77;100.00;102497.48;106954;1264;23024;-62
2023/01/24 07:26:00;;;;;;;90.80;36.10;;;;;;;1.78;100.00;102496.06;106945;1271;25250;-62
2023/01/24 07:28:31;;;;;;;99.50;40.40;;;;;;;1.75;100.00;102492.47;106859;1262;24318;-60
2023/01/24 07:31:02;;;;;;;100.90;42.70;;;;;;;1.76;100.00;102494.54;107048;1262;24226;-61
2023/01/24 07:33:34;;;;;;;100.30;42.00;;;;;;;1.78;100.00;102494.02;106850;1267;25254;-61
2023/01/24 07:36:13;;;;;;;96.00;36.00;;;;;;;1.80;100.00;102498.47;106904;1277;22541;-62
2023/01/24 07:38:44;;;;;;;89.20;35.00;;;;;;;1.82;100.00;102497.48;106938;1277;22578;-62
2023/01/24 07:41:15;;;;;;;95.70;40.00;;;;;;;1.84;100.00;102496.26;106935;1274;22577;-61
2023/01/24 07:43:47;;;;;;;98.80;38.80;;;;;;;1.86;100.00;102501.73;106910;1267;22795;-61
2023/01/24 07:46:19;;;;;;;187.00;74.20;;;;;;;1.88;100.00;102504.85;106886;1277;23141;-59
2023/01/24 07:48:50;;;;;;;250.60;113.10;;;;;;;1.89;100.00;102505.80;106893;1273;23032;-59
2023/01/24 07:51:21;;;;;;;228.90;109.90;;;;;;;1.90;100.00;102503.85;106960;1262;24215;-61
2023/01/24 07:53:52;;;;;;;124.70;55.60;;;;;;;1.93;100.00;102512.23;106921;1277;22539;-60
2023/01/24 07:56:23;;;;;;;111.40;52.60;;;;;;;1.93;100.00;102506.98;106845;1267;24394;-61
2023/01/24 07:58:56;;;;;;;113.80;53.30;;;;;;;1.93;100.00;102510.67;106874;1274;22536;-61
2023/01/24 08:01:28;;;;;;;120.00;54.10;;;;;;;1.95;100.00;102508.52;106922;1270;25252;-61
2023/01/24 08:03:59;;;;;;;80.20;34.00;;;;;;;1.96;100.00;102509.31;106912;1277;24212;-59
2023/01/24 08:06:30;;;;;;;79.30;32.50;;;;;;;1.97;100.00;102508.46;106847;1272;22530;-61
2023/01/24 08:09:02;;;;;;;109.50;44.20;;;;;;;1.98;100.00;102508.02;106948;1274;23902;-61
2023/01/24 08:11:33;;;;;;;166.30;67.30;;;;;;;2.01;100.00;102507.27;106865;1277;22533;-60
2023/01/24 08:14:04;;;;;;;149.00;57.60;;;;;;;2.04;100.00;102506.47;106888;1267;22629;-61
2023/01/24 08:16:35;;;;;;;143.20;58.90;;;;;;;2.07;100.00;102509.84;106926;1273;22547;-59
2023/01/24 08:19:06;;;;;;;147.30;59.40;;;;;;;2.09;100.00;102505.06;106803;1271;22547;-61
2023/01/24 08:21:37;;;;;;;158.20;61.90;;;;;;;2.10;100.00;102502.01;106948;1273;23903;-61
2023/01/24 08:24:09;;;;;;;134.40;54.00;;;;;;;2.12;100.00;102510.80;107075;1262;22527;-61
2023/01/24 08:26:40;;;;;;;95.90;40.70;;;;;;;2.13;100.00;102506.78;106959;1277;22550;-60
2023/01/24 08:29:11;;;;;;;107.10;46.70;;;;;;;2.14;100.00;102509.80;106860;1277;22683;-61
2023/01/24 08:31:43;;;;;;;108.20;48.50;;;;;;;2.17;100.00;102508.91;106891;1262;22542;-62
2023/01/24 08:34:14;;;;;;;95.00;39.50;;;;;;;2.20;100.00;102507.08;106941;1274;23154;-59
2023/01/24 08:36:45;;;;;;;89.20;37.90;;;;;;;2.21;100.00;102512.85;106983;1273;25460;-61
2023/01/24 08:39:16;;;;;;;81.30;33.00;;;;;;;2.23;100.00;102514.62;106854;1277;22544;-59
2023/01/24 08:41:47;;;;;;;87.00;35.40;;;;;;;2.25;100.00;102518.34;106934;1277;24248;-61
2023/01/24 08:44:19;;;;;;;110.80;47.40;;;;;;;2.26;100.00;102516.31;106846;1273;22593;-58
2023/01/24 08:46:50;;;;;;;102.20;43.70;;;;;;;2.30;100.00;102518.20;106834;1274;24181;-60
2023/01/24 08:49:21;;;;;;;88.20;37.90;;;;;;;2.31;100.00;102524.52;106919;1262;22534;-61
2023/01/24 08:51:58;;;;;;;79.90;32.20;;;;;;;2.33;100.00;102523.21;106883;1270;25324;-59
2023/01/24 08:54:32;;;;;;;84.30;34.50;;;;;;;2.34;100.00;102520.94;106946;1270;22533;-61
2023/01/24 08:57:03;;;;;;;83.50;32.60;;;;;;;2.36;100.00;102519.80;106839;1277;24213;-59
2023/01/24 08:59:34;;;;;;;92.50;37.40;;;;;;;2.37;100.00;102525.40;106631;1276;22533;-61
2023/01/24 09:02:06;;;;;;;90.30;37.60;;;;;;;2.39;100.00;102527.17;106755;1274;24171;-61
2023/01/24 09:04:37;;;;;;;86.40;35.60;;;;;;;2.41;100.00;102530.20;107090;1270;22543;-63
2023/01/24 09:07:08;;;;;;;83.80;34.60;;;;;;;2.43;100.00;102530.40;106617;1271;25476;-60
2023/01/24 09:09:39;;;;;;;80.60;33.20;;;;;;;2.45;100.00;102534.05;106849;1261;22748;-62
2023/01/24 09:12:10;;;;;;;82.60;32.60;;;;;;;2.45;100.00;102540.59;106819;1262;22536;-62
2023/01/24 09:14:41;;;;;;;80.70;34.60;;;;;;;2.45;100.00;102537.68;107002;1277;23065;-62
2023/01/24 09:17:12;;;;;;;78.80;31.70;;;;;;;2.45;100.00;102535.07;106958;1258;22533;-60
2023/01/24 09:19:44;;;;;;;73.80;29.90;;;;;;;2.45;100.00;102534.20;106861;1277;22531;-62
2023/01/24 09:22:15;;;;;;;75.90;32.10;;;;;;;2.44;100.00;102534.83;106955;1273;23025;-62
2023/01/24 09:24:46;;;;;;;73.70;32.30;;;;;;;2.45;100.00;102535.95;106817;1277;22540;-60
2023/01/24 09:27:17;;;;;;;84.50;33.90;;;;;;;2.47;100.00;102539.90;106863;1269;22530;-60
2023/01/24 09:29:49;;;;;;;69.30;30.30;;;;;;;2.49;100.00;102540.02;106824;1277;23194;-62
2023/01/24 09:32:20;;;;;;;82.70;34.80;;;;;;;2.50;100.00;102538.21;106780;1277;22658;-61
2023/01/24 09:34:51;;;;;;;78.90;31.20;;;;;;;2.53;100.00;102538.89;106772;1277;25492;-60
2023/01/24 09:37:23;;;;;;;75.50;31.20;;;;;;;2.53;100.00;102542.37;106824;1277;22550;-61
2023/01/24 09:39:55;;;;;;;76.90;32.20;;;;;;;2.53;100.00;102538.66;106830;1274;23806;-59
2023/01/24 09:42:35;;;;;;;78.80;33.10;;;;;;;2.55;100.00;102536.73;106899;1270;22535;-61
2023/01/24 09:45:19;;;;;;;85.00;34.20;;;;;;;2.59;100.00;102537.04;107079;1277;22667;-61
2023/01/24 09:47:55;;;;;;;75.10;31.80;;;;;;;2.63;100.00;102536.31;106901;1277;22675;-62
2023/01/24 09:50:35;;;;;;;71.00;29.80;;;;;;;2.67;100.00;102535.42;107188;1269;22543;-61
2023/01/24 09:53:14;;;;;;;72.30;30.90;;;;;;;2.70;100.00;102535.16;106759;1277;23197;-61
2023/01/24 09:55:47;;;;;;;79.60;32.30;;;;;;;2.71;100.00;102534.23;106802;1277;22563;-61
2023/01/24 09:58:30;;;;;;;74.00;33.30;;;;;;;2.73;100.00;102530.31;106850;1277;25416;-61
2023/01/24 10:01:05;;;;;;;74.90;28.10;;;;;;;2.76;100.00;102524.46;106842;1277;22549;-61
2023/01/24 10:03:37;;;;;;;66.40;26.70;;;;;;;2.76;100.00;102527.77;106947;1267;23159;-59
2023/01/24 10:06:14;;;;;;;65.90;28.90;;;;;;;2.76;100.00;102526.03;106936;1277;24204;-60
2023/01/24 10:08:52;;;;;;;73.10;31.50;;;;;;;2.76;100.00;102520.67;106849;1277;24720;-62
2023/01/24 10:11:32;;;;;;;73.30;28.80;;;;;;;2.79;100.00;102518.52;106772;1277;22554;-63
2023/01/24 10:14:25;;;;;;;80.10;31.40;;;;;;;2.80;100.00;102513.73;106914;1273;22537;-62
2023/01/24 10:17:18;;;;;;;78.80;33.90;;;;;;;2.85;100.00;102510.40;106926;1267;22547;-62
2023/01/24 10:20:18;;;;;;;71.60;28.90;;;;;;;2.90;100.00;102505.13;106709;1277;22537;-61
2023/01/24 10:23:09;;;;;;;81.30;35.40;;;;;;;2.95;100.00;102503.61;106469;1281;22543;-62
2023/01/24 10:25:51;;;;;;;79.60;33.60;;;;;;;3.01;100.00;102506.07;106457;1279;24236;-63
2023/01/24 10:28:27;;;;;;;77.60;34.30;;;;;;;3.05;100.00;102500.92;106471;1274;25509;-61
2023/01/24 10:31:06;;;;;;;73.10;29.60;;;;;;;3.09;100.00;102497.35;106508;1282;22584;-62
2023/01/24 10:33:42;;;;;;;67.90;30.70;;;;;;;3.11;100.00;102493.67;106510;1268;24266;-62
2023/01/24 10:36:19;;;;;;;77.70;33.60;;;;;;;3.15;100.00;102493.50;106481;1275;25431;-62
2023/01/24 10:38:50;;;;;;;61.70;27.30;;;;;;;3.18;100.00;102496.53;106423;1282;25298;-63
2023/01/24 10:41:24;;;;;;;65.10;27.60;;;;;;;3.16;100.00;102491.30;106350;1282;23022;-63
2023/01/24 10:44:02;;;;;;;62.30;25.80;;;;;;;3.14;100.00;102493.96;106438;1282;22602;-62
2023/01/24 10:46:56;;;;;;;65.90;25.90;;;;;;;3.11;100.00;102492.73;106499;1280;22532;-63
2023/01/24 10:49:30;;;;;;;60.70;26.20;;;;;;;3.13;100.00;102493.55;106362;1275;22780;-61
2023/01/24 10:52:18;;;;;;;70.80;29.90;;;;;;;3.16;100.00;102493.11;106407;1277;22664;-61
2023/01/24 10:54:53;;;;;;;67.00;27.90;;;;;;;3.20;100.00;102492.62;106457;1282;22533;-61
2023/01/24 10:57:34;;;;;;;55.20;24.60;;;;;;;3.21;100.00;102488.99;106631;1282;23904;-62
2023/01/24 11:00:25;;;;;;;61.50;26.00;;;;;;;3.21;100.00;102487.26;106619;1277;24219;-63
2023/01/24 11:02:58;;;;;;;67.80;28.20;;;;;;;3.22;100.00;102482.31;106833;1271;25257;-63
2023/01/24 11:05:41;;;;;;;64.70;26.70;;;;;;;3.25;100.00;102479.51;107002;1268;22524;-61
2023/01/24 11:08:21;;;;;;;64.50;26.60;;;;;;;3.26;100.00;102481.66;107436;1267;22535;-62
2023/01/24 11:10:55;;;;;;;64.10;27.00;;;;;;;3.27;100.00;102481.66;107324;1273;22533;-60
2023/01/24 11:13:35;;;;;;;68.80;28.10;;;;;;;3.28;100.00;102482.39;106868;1271;25358;-60
2023/01/24 11:16:21;;;;;;;66.10;27.60;;;;;;;3.30;100.00;102476.27;106761;1277;22527;-61
2023/01/24 11:18:56;;;;;;;61.90;25.70;;;;;;;3.34;100.00;102475.52;106803;1262;22660;-62
2023/01/24 11:21:29;;;;;;;58.70;24.80;;;;;;;3.37;100.00;102475.80;106834;1277;22567;-62
2023/01/24 11:24:15;;;;;;;67.90;28.30;;;;;;;3.38;100.00;102472.42;106879;1277;22547;-62
2023/01/24 11:26:58;;;;;;;59.80;25.60;;;;;;;3.41;100.00;102473.00;106866;1277;22534;-60
2023/01/24 11:29:31;;;;;;;65.20;27.50;;;;;;;3.43;99.97;102473.73;106989;1270;22560;-62
2023/01/24 11:32:27;;;;;;;64.10;28.70;;;;;;;3.43;99.90;102469.55;106902;1277;22532;-60
2023/01/24 11:35:09;;;;;;;68.30;28.10;;;;;;;3.43;99.95;102466.88;106777;1254;22540;-61
2023/01/24 11:37:58;;;;;;;60.90;27.40;;;;;;;3.45;99.84;102465.33;106769;1277;24225;-63
2023/01/24 11:40:40;;;;;;;61.70;25.40;;;;;;;3.46;99.70;102469.66;106829;1273;24581;-60
2023/01/24 11:43:36;;;;;;;63.10;27.50;;;;;;;3.45;99.39;102470.91;106941;1277;22877;-60
2023/01/24 11:46:26;;;;;;;61.70;27.40;;;;;;;3.43;99.42;102466.09;106764;1273;24286;-62
2023/01/24 11:49:05;;;;;;;65.80;29.10;;;;;;;3.43;99.47;102463.80;106793;1274;25438;-62
2023/01/24 11:51:58;;;;;;;64.20;27.40;;;;;;;3.45;99.79;102463.58;106801;1274;22532;-60
2023/01/24 11:54:45;;;;;;;66.20;28.40;;;;;;;3.51;100.00;102468.63;106840;1277;22793;-62
2023/01/24 11:57:27;;;;;;;65.50;30.10;;;;;;;3.53;99.97;102471.58;106819;1270;22541;-62
2023/01/24 12:00:10;;;;;;;60.40;27.70;;;;;;;3.57;99.99;102473.04;106752;1272;26192;-63
2023/01/24 12:03:00;;;;;;;72.10;31.80;;;;;;;3.57;99.84;102475.41;107021;1267;22538;-61
2023/01/24 12:05:31;;;;;;;;;;;;;;;3.60;99.98;102470.08;106931;1277;25287;-61
2023/01/24 12:08:18;;;;;;;67.10;29.70;;;;;;;3.62;99.86;102468.83;106879;1277;22642;-63
2023/01/24 12:11:01;;;;;;;65.20;28.70;;;;;;;3.65;100.00;102467.13;106880;1277;23154;-60